Necedah, Wisconsin
Current Conditions -  °F | °C
As of 1:58 PM on Sunday 25 Jan 2015 (Local Time) from KVOK Reporting Station
Scattered Clouds Scattered Clouds  
Wind Chill: -10°   Ceiling: Unl
Heat Index: -4°   Visibility: 10mi
Dew Point: -12°   Wind: 12mph
Humidity: 54%   Direction: 100°E
Pressure: 29.98"   Gusts: 17mph
Location:  44.03°N, 90.07°W
Report Text: KVOK 251958Z 10010G15KT 10SM SCT030 SCT150 M04/M12 A2998 RMK AO2A SLP167
Loading
Personal Weather Stations






























Interactive Weather Map New forecast layout! Learn more

10-Day Weather Forecast

Advertisements
Track Severe Weather on mobile